createdAt,value
2023-03-17T00:01:10.616Z,36.13
2023-03-17T00:03:38.129Z,39.97
2023-03-17T00:06:05.159Z,36.70
2023-03-17T00:08:32.578Z,32.87
2023-03-17T00:10:59.426Z,33.77
2023-03-17T00:13:26.290Z,33.97
2023-03-17T00:15:53.652Z,33.07
2023-03-17T00:18:20.308Z,33.50
2023-03-17T00:20:47.098Z,31.67
2023-03-17T00:23:15.387Z,32.40
2023-03-17T00:25:43.328Z,33.67
2023-03-17T00:28:13.880Z,35.60
2023-03-17T00:30:40.503Z,35.33
2023-03-17T00:33:07.650Z,40.90
2023-03-17T00:35:34.441Z,39.00
2023-03-17T00:38:01.092Z,36.77
2023-03-17T00:40:32.703Z,36.93
2023-03-17T00:43:03.165Z,34.70
2023-03-17T00:45:29.832Z,34.13
2023-03-17T00:47:57.665Z,35.37
2023-03-17T00:50:25.299Z,33.33
2023-03-17T00:52:52.847Z,33.47
2023-03-17T00:55:19.879Z,32.47
2023-03-17T00:57:47.649Z,32.93
2023-03-17T01:00:24.699Z,32.93
2023-03-17T01:02:51.777Z,32.57
2023-03-17T01:05:19.664Z,33.10
2023-03-17T01:07:48.875Z,32.27
2023-03-17T01:10:16.779Z,32.60
2023-03-17T01:12:43.680Z,31.43
2023-03-17T01:15:13.137Z,33.20
2023-03-17T01:17:40.109Z,31.50
2023-03-17T01:20:07.222Z,30.30
2023-03-17T01:22:34.092Z,31.30
2023-03-17T01:25:01.627Z,31.40
2023-03-17T01:27:29.104Z,30.97
2023-03-17T01:29:55.706Z,31.37
2023-03-17T01:32:22.450Z,30.10
2023-03-17T01:34:48.985Z,30.30
2023-03-17T01:37:15.636Z,29.93
2023-03-17T01:39:42.179Z,30.63
2023-03-17T01:42:08.851Z,28.10
2023-03-17T02:16:27.822Z,22.63
2023-03-17T02:18:54.615Z,25.87
2023-03-17T02:21:36.628Z,23.17
2023-03-17T02:24:05.339Z,23.63
2023-03-17T02:26:32.659Z,23.43
2023-03-17T02:28:59.310Z,18.03
2023-03-17T02:31:26.136Z,18.17
2023-03-17T02:33:53.082Z,8.47
2023-03-17T02:36:20.707Z,8.43
2023-03-17T02:38:47.502Z,6.50
2023-03-17T02:41:14.132Z,5.27
2023-03-17T02:43:41.492Z,4.73
2023-03-17T02:46:08.197Z,4.67
2023-03-17T02:48:34.977Z,4.23
2023-03-17T02:51:01.570Z,4.60
2023-03-17T02:53:28.277Z,5.03
2023-03-17T02:55:54.806Z,5.53
2023-03-17T02:58:21.461Z,5.80
2023-03-17T03:00:49.339Z,5.83
2023-03-17T03:03:16.227Z,5.43
2023-03-17T03:05:42.958Z,5.07
2023-03-17T03:08:09.614Z,4.93
2023-03-17T03:10:36.380Z,4.37
2023-03-17T03:13:03.241Z,4.90
2023-03-17T03:15:29.836Z,4.30
2023-03-17T03:17:56.496Z,4.50
2023-03-17T03:20:23.065Z,4.83
2023-03-17T03:22:49.928Z,4.17
2023-03-17T03:25:17.320Z,4.73
2023-03-17T03:27:43.959Z,4.17
2023-03-17T03:30:10.843Z,4.27
2023-03-17T03:32:37.818Z,4.60
2023-03-17T03:35:04.604Z,4.43
2023-03-17T03:37:31.278Z,4.27
2023-03-17T03:39:57.815Z,4.50
2023-03-17T03:42:24.420Z,4.10
2023-03-17T03:44:51.418Z,4.80
2023-03-17T03:47:18.090Z,5.03
2023-03-17T03:52:28.607Z,5.70
2023-03-17T03:54:55.180Z,6.37
2023-03-17T03:57:21.784Z,5.50
2023-03-17T03:59:48.387Z,5.77
2023-03-17T04:02:15.030Z,5.97
2023-03-17T04:04:42.881Z,5.97
2023-03-17T04:07:10.026Z,5.60
2023-03-17T04:09:36.678Z,5.93
2023-03-17T04:12:03.634Z,5.17
2023-03-17T04:14:30.434Z,5.93
2023-03-17T04:16:57.234Z,6.17
2023-03-17T04:19:24.144Z,7.40
2023-03-17T04:21:53.633Z,7.97
2023-03-17T04:24:21.381Z,7.67
2023-03-17T04:26:48.147Z,6.73
2023-03-17T04:29:16.086Z,6.27
2023-03-17T04:32:03.850Z,5.97
2023-03-17T04:35:54.844Z,6.47
2023-03-17T04:42:13.453Z,6.40
2023-03-17T04:45:07.146Z,6.50
2023-03-17T04:48:17.441Z,6.37
2023-03-17T04:50:55.528Z,7.30
2023-03-17T04:57:07.147Z,8.17
2023-03-17T05:03:26.785Z,8.57
2023-03-17T05:06:47.117Z,8.50
2023-03-17T05:17:56.882Z,7.77
2023-03-17T05:21:00.808Z,9.77
2023-03-17T05:23:54.904Z,9.57
2023-03-17T05:26:21.909Z,10.33
2023-03-17T05:28:49.162Z,10.63
2023-03-17T05:31:15.946Z,12.93
2023-03-17T05:33:43.521Z,13.93
2023-03-17T05:36:10.270Z,14.67
2023-03-17T05:38:37.058Z,15.23
2023-03-17T05:41:04.262Z,17.07
2023-03-17T05:43:31.303Z,14.77
2023-03-17T05:45:58.336Z,15.30
2023-03-17T05:48:25.380Z,16.87
2023-03-17T05:50:52.121Z,18.97
2023-03-17T05:53:18.759Z,19.77
2023-03-17T05:55:45.587Z,21.23
2023-03-17T05:58:12.862Z,22.70
2023-03-17T06:03:25.013Z,16.77
2023-03-17T06:08:36.097Z,14.20
2023-03-17T06:11:02.934Z,14.90
2023-03-17T06:13:29.903Z,14.57
2023-03-17T06:15:57.671Z,14.53
2023-03-17T06:18:24.564Z,15.43
2023-03-17T06:20:51.579Z,15.93
2023-03-17T06:23:18.958Z,16.80
2023-03-17T06:25:45.851Z,16.73
2023-03-17T06:28:13.409Z,15.13
2023-03-17T06:30:40.962Z,14.83
2023-03-17T06:33:08.268Z,14.90
2023-03-17T06:35:35.513Z,14.03
2023-03-17T06:38:02.391Z,14.50
2023-03-17T06:40:29.222Z,15.03
2023-03-17T06:42:56.622Z,15.37
2023-03-17T06:45:23.238Z,15.80
2023-03-17T06:47:49.908Z,15.53
2023-03-17T06:50:16.644Z,13.27
2023-03-17T06:52:45.026Z,14.37
2023-03-17T06:55:13.465Z,14.47
2023-03-17T06:57:40.047Z,13.63
2023-03-17T07:00:09.859Z,13.63
2023-03-17T07:02:36.658Z,14.20
2023-03-17T07:05:04.325Z,15.53
2023-03-17T07:07:31.727Z,14.60
2023-03-17T07:09:58.585Z,15.90
2023-03-17T07:12:25.241Z,15.57
2023-03-17T07:14:52.198Z,15.63
2023-03-17T07:17:19.738Z,14.57
2023-03-17T07:19:46.445Z,14.53
2023-03-17T07:22:13.090Z,14.00
2023-03-17T07:24:41.406Z,13.90
2023-03-17T07:27:08.660Z,14.77
2023-03-17T07:29:36.221Z,14.07
2023-03-17T07:32:05.461Z,14.60
2023-03-17T07:34:32.453Z,13.60
2023-03-17T07:36:59.169Z,14.63
2023-03-17T07:39:26.021Z,14.30
2023-03-17T07:41:55.254Z,13.47
2023-03-17T07:47:07.770Z,13.23
2023-03-17T07:49:41.126Z,14.23
2023-03-17T07:52:08.942Z,13.30
2023-03-17T07:54:36.359Z,12.77
2023-03-17T07:57:03.497Z,12.20
2023-03-17T07:59:30.291Z,12.80
2023-03-17T08:01:58.203Z,12.73
2023-03-17T08:04:24.850Z,13.27
2023-03-17T08:06:52.323Z,12.60
2023-03-17T08:09:18.928Z,13.93
2023-03-17T08:11:45.610Z,13.23
2023-03-17T08:14:13.236Z,13.07
2023-03-17T08:16:40.134Z,12.80
2023-03-17T08:19:07.757Z,14.13
2023-03-17T08:21:34.979Z,13.87
2023-03-17T08:24:01.778Z,14.30
2023-03-17T08:26:28.640Z,14.27
2023-03-17T08:28:55.622Z,12.60
2023-03-17T08:31:22.955Z,14.43
2023-03-17T08:33:51.036Z,13.50
2023-03-17T08:36:18.661Z,13.63
2023-03-17T08:38:46.229Z,13.67
2023-03-17T08:41:15.088Z,11.50
2023-03-17T08:43:42.841Z,12.50
2023-03-17T08:46:13.340Z,11.40
2023-03-17T08:48:40.007Z,11.70
2023-03-17T08:51:06.981Z,10.80
2023-03-17T08:53:35.486Z,11.60
2023-03-17T08:56:02.291Z,11.50
2023-03-17T08:58:29.584Z,11.27
2023-03-17T09:00:59.988Z,11.67
2023-03-17T09:03:27.131Z,12.37
2023-03-17T09:05:54.810Z,10.77
2023-03-17T09:08:22.412Z,10.87
2023-03-17T09:10:50.154Z,11.43
2023-03-17T09:13:17.689Z,11.27
2023-03-17T09:15:44.749Z,9.77
2023-03-17T09:18:11.623Z,10.27
2023-03-17T09:20:38.210Z,9.60
2023-03-17T09:23:08.252Z,9.80
2023-03-17T09:25:38.122Z,8.93
2023-03-17T09:28:04.913Z,9.80
2023-03-17T09:30:33.102Z,9.00
2023-03-17T09:33:00.766Z,9.50
2023-03-17T09:35:32.232Z,9.60
2023-03-17T09:37:59.145Z,9.17
2023-03-17T09:40:33.102Z,8.77
2023-03-17T09:43:03.201Z,9.30
2023-03-17T09:45:43.677Z,10.10
2023-03-17T09:48:19.664Z,10.87
2023-03-17T09:50:48.190Z,9.17
2023-03-17T09:53:22.034Z,7.93
2023-03-17T09:55:51.278Z,8.23
2023-03-17T09:58:19.703Z,8.70
2023-03-17T10:00:47.020Z,8.80
2023-03-17T10:03:13.989Z,7.73
2023-03-17T10:05:42.328Z,6.83
2023-03-17T10:08:31.359Z,8.10
2023-03-17T10:11:16.436Z,8.27
2023-03-17T10:14:00.883Z,7.77
2023-03-17T10:16:39.983Z,7.33
2023-03-17T10:19:10.705Z,7.00
2023-03-17T10:21:38.819Z,7.40
2023-03-17T10:24:05.778Z,8.03
2023-03-17T10:26:39.845Z,7.80
2023-03-17T10:29:12.535Z,7.97
2023-03-17T10:31:39.473Z,7.13
2023-03-17T10:34:15.306Z,8.07
2023-03-17T10:36:47.161Z,7.17
2023-03-17T10:39:15.226Z,5.70
2023-03-17T10:41:48.740Z,7.03
2023-03-17T10:44:22.528Z,6.27
2023-03-17T10:46:53.211Z,5.47
2023-03-17T10:49:23.012Z,5.93
2023-03-17T10:51:50.915Z,6.73
2023-03-17T10:54:18.037Z,6.10
2023-03-17T10:56:46.380Z,6.70
2023-03-17T10:59:20.345Z,6.47
2023-03-17T11:01:48.597Z,6.13
2023-03-17T11:04:22.084Z,7.17
2023-03-17T11:06:49.390Z,6.53
2023-03-17T11:09:18.534Z,6.20
2023-03-17T11:11:46.601Z,6.40
2023-03-17T11:14:14.013Z,5.60
2023-03-17T11:16:47.679Z,6.20
2023-03-17T11:19:15.586Z,5.63
2023-03-17T11:21:47.469Z,6.43
2023-03-17T11:24:15.026Z,5.40
2023-03-17T11:26:47.496Z,5.60
2023-03-17T11:29:22.465Z,6.03
2023-03-17T11:32:12.622Z,6.87
2023-03-17T11:34:42.968Z,5.87
2023-03-17T11:37:26.393Z,6.17
2023-03-17T11:40:06.197Z,7.80
2023-03-17T11:42:37.162Z,6.57
2023-03-17T11:45:10.478Z,5.17
2023-03-17T11:47:52.355Z,5.60
2023-03-17T11:50:28.798Z,5.10
2023-03-17T11:53:16.489Z,3.40
2023-03-17T11:55:45.591Z,5.60
2023-03-17T11:58:31.389Z,5.20
2023-03-17T12:00:58.685Z,5.53
2023-03-17T12:03:40.784Z,5.10
2023-03-17T12:06:11.243Z,4.67
2023-03-17T12:08:39.683Z,5.53
2023-03-17T12:11:07.255Z,4.60
2023-03-17T12:13:36.343Z,4.73
2023-03-17T12:16:11.337Z,4.57
2023-03-17T12:18:42.284Z,4.60
2023-03-17T12:21:22.347Z,5.43
2023-03-17T12:23:58.570Z,7.40
2023-03-17T12:26:43.806Z,7.13
2023-03-17T12:29:15.393Z,9.30
2023-03-17T12:32:05.902Z,7.10
2023-03-17T12:34:52.046Z,7.97
2023-03-17T12:37:19.237Z,8.03
2023-03-17T12:40:08.708Z,8.13
2023-03-17T12:42:42.651Z,7.57
2023-03-17T12:45:28.036Z,6.47
2023-03-17T12:48:13.801Z,4.90
2023-03-17T12:50:44.015Z,7.17
2023-03-17T12:53:22.959Z,7.70
2023-03-17T12:55:50.824Z,6.40
2023-03-17T12:58:25.346Z,7.67
2023-03-17T13:01:02.001Z,7.83
2023-03-17T13:06:19.728Z,6.33
2023-03-17T13:08:47.545Z,8.90
2023-03-17T13:11:46.101Z,9.10
2023-03-17T13:17:04.856Z,6.13
2023-03-17T13:19:32.686Z,6.10
2023-03-17T13:22:05.705Z,5.10
2023-03-17T13:24:40.422Z,6.67
2023-03-17T13:27:10.277Z,5.80
2023-03-17T13:29:36.925Z,6.70
2023-03-17T13:32:17.112Z,6.43
2023-03-17T13:34:50.849Z,6.40
2023-03-17T13:37:26.895Z,6.20
2023-03-17T13:40:09.394Z,5.93
2023-03-17T13:43:10.429Z,5.43
2023-03-17T13:45:41.327Z,6.93
2023-03-17T13:48:30.105Z,6.63
2023-03-17T13:51:02.639Z,5.87
2023-03-17T13:53:30.521Z,7.07
2023-03-17T13:56:05.117Z,7.80
2023-03-17T13:58:33.966Z,7.10
2023-03-17T14:01:02.926Z,7.33
2023-03-17T14:03:38.544Z,7.87
2023-03-17T14:06:07.292Z,7.20
2023-03-17T14:08:35.077Z,7.70
2023-03-17T14:11:15.869Z,7.07
2023-03-17T14:13:57.702Z,7.80
2023-03-17T14:16:24.967Z,9.87
2023-03-17T14:18:56.378Z,9.00
2023-03-17T14:21:32.350Z,11.30
2023-03-17T14:24:01.576Z,9.47
2023-03-17T14:26:29.766Z,10.20
2023-03-17T14:29:22.527Z,11.57
2023-03-17T14:31:49.901Z,10.40
2023-03-17T14:34:16.691Z,10.50
2023-03-17T14:36:43.758Z,10.60
2023-03-17T14:39:19.647Z,7.43
2023-03-17T14:41:46.538Z,8.23
2023-03-17T14:44:13.221Z,7.00
2023-03-17T14:46:41.277Z,6.93
2023-03-17T14:49:17.894Z,6.50
2023-03-17T14:51:44.797Z,7.13
2023-03-17T14:54:15.477Z,7.60
2023-03-17T14:56:43.159Z,6.87
2023-03-17T14:59:12.707Z,6.10
2023-03-17T15:01:42.570Z,6.13
2023-03-17T15:04:12.962Z,5.57
2023-03-17T15:06:49.829Z,6.13
2023-03-17T15:09:20.821Z,5.03
2023-03-17T15:11:47.765Z,5.50
2023-03-17T15:14:16.276Z,5.03
2023-03-17T15:16:49.898Z,4.93
2023-03-17T15:19:21.530Z,5.87
2023-03-17T15:21:48.668Z,5.40
2023-03-17T15:24:18.400Z,5.67
2023-03-17T15:26:45.194Z,5.50
2023-03-17T15:29:11.867Z,5.93
2023-03-17T15:31:38.676Z,5.20
2023-03-17T15:34:05.544Z,5.40
2023-03-17T15:36:33.379Z,5.60
2023-03-17T15:39:00.714Z,5.60
2023-03-17T15:41:27.654Z,5.80
2023-03-17T15:43:54.441Z,6.73
2023-03-17T15:46:24.057Z,8.83
2023-03-17T15:48:50.983Z,13.10
2023-03-17T15:51:18.122Z,10.83
2023-03-17T15:53:44.792Z,7.20
2023-03-17T15:56:19.192Z,8.13
2023-03-17T15:58:49.421Z,5.87
2023-03-17T16:01:16.806Z,5.90
2023-03-17T16:03:45.515Z,7.13
2023-03-17T16:06:19.237Z,5.43
2023-03-17T16:08:46.079Z,4.87
2023-03-17T16:11:19.882Z,6.87
2023-03-17T16:13:47.137Z,6.40
2023-03-17T16:16:18.245Z,7.10
2023-03-17T16:18:47.131Z,7.53
2023-03-17T16:21:13.879Z,6.73
2023-03-17T16:23:40.783Z,7.10
2023-03-17T16:26:15.433Z,7.13
2023-03-17T16:28:44.920Z,6.90
2023-03-17T16:31:31.027Z,7.67
2023-03-17T16:33:58.265Z,6.13
2023-03-17T16:36:25.539Z,5.70
2023-03-17T16:38:52.498Z,7.80
2023-03-17T16:44:05.591Z,9.43
2023-03-17T16:46:34.863Z,7.30
2023-03-17T16:49:02.298Z,6.87
2023-03-17T16:51:29.274Z,6.10
2023-03-17T16:53:56.241Z,7.07
2023-03-17T16:56:23.202Z,6.27
2023-03-17T16:58:50.413Z,7.10
2023-03-17T17:01:20.834Z,4.67
2023-03-17T17:03:47.941Z,7.60
2023-03-17T17:06:14.855Z,8.57
2023-03-17T17:08:42.616Z,8.50
2023-03-17T17:11:09.437Z,8.50
2023-03-17T17:13:37.691Z,7.83
2023-03-17T17:16:05.098Z,9.70
2023-03-17T17:18:32.309Z,7.83
2023-03-17T17:20:59.149Z,6.30
2023-03-17T17:23:26.593Z,6.33
2023-03-17T17:25:53.396Z,5.63
2023-03-17T17:28:22.586Z,6.80
2023-03-17T17:30:50.763Z,7.60
2023-03-17T17:33:19.147Z,7.17
2023-03-17T17:35:46.142Z,6.40
2023-03-17T17:38:19.763Z,6.27
2023-03-17T17:40:46.860Z,6.43
2023-03-17T17:43:13.683Z,6.90
2023-03-17T17:45:41.374Z,5.83
2023-03-17T17:48:09.734Z,6.60
2023-03-17T17:50:36.655Z,6.03
2023-03-17T17:53:05.439Z,6.03
2023-03-17T17:55:36.258Z,6.50
2023-03-17T17:58:03.392Z,7.20
2023-03-17T18:00:30.909Z,6.10
2023-03-17T18:02:57.933Z,7.50
2023-03-17T18:05:26.075Z,9.47
2023-03-17T18:07:52.801Z,10.40
2023-03-17T18:10:24.128Z,8.00
2023-03-17T18:12:50.910Z,7.23
2023-03-17T18:15:17.898Z,6.90
2023-03-17T18:17:45.656Z,6.97
2023-03-17T18:20:13.246Z,7.17
2023-03-17T18:22:41.758Z,6.90
2023-03-17T18:25:10.002Z,7.17
2023-03-17T18:27:37.777Z,6.90
2023-03-17T18:30:05.810Z,6.63
2023-03-17T18:32:33.752Z,6.77
2023-03-17T18:35:03.042Z,6.53
2023-03-17T18:37:30.171Z,6.67
2023-03-17T18:40:12.246Z,6.10
2023-03-17T18:42:40.868Z,6.33
2023-03-17T18:45:10.821Z,5.97
2023-03-17T18:47:39.134Z,6.50
2023-03-17T18:50:08.472Z,6.50
2023-03-17T18:52:35.990Z,6.00
2023-03-17T18:55:02.966Z,5.97
2023-03-17T18:57:31.386Z,6.50
2023-03-17T18:59:59.280Z,5.80
2023-03-17T19:02:26.238Z,6.20
2023-03-17T19:04:53.527Z,6.20
2023-03-17T19:07:22.766Z,6.13
2023-03-17T19:09:49.827Z,6.50
2023-03-17T19:12:16.809Z,6.57
2023-03-17T19:14:44.053Z,5.60
2023-03-17T19:17:11.142Z,6.47
2023-03-17T19:19:40.462Z,5.67
2023-03-17T19:22:07.843Z,6.27
2023-03-17T19:24:37.553Z,6.33
2023-03-17T19:27:05.859Z,6.20
2023-03-17T19:29:34.011Z,6.53
2023-03-17T19:32:02.581Z,6.77
2023-03-17T19:34:29.494Z,6.47
2023-03-17T19:36:56.613Z,6.40
2023-03-17T19:39:24.664Z,6.00
2023-03-17T19:41:55.303Z,6.60
2023-03-17T19:44:22.343Z,5.60
2023-03-17T19:46:49.197Z,6.63
2023-03-17T19:49:16.674Z,7.03
2023-03-17T19:51:43.424Z,5.53
2023-03-17T19:54:10.525Z,7.00
2023-03-17T19:56:38.549Z,7.10
2023-03-17T19:59:06.140Z,6.70
2023-03-17T20:01:33.273Z,6.60
2023-03-17T20:04:00.222Z,6.23
2023-03-17T20:06:27.382Z,6.40
2023-03-17T20:08:54.441Z,7.37
2023-03-17T20:11:21.211Z,6.67
2023-03-17T20:13:48.750Z,5.80
2023-03-17T20:16:16.637Z,6.53
2023-03-17T20:18:43.609Z,7.13
2023-03-17T20:21:13.758Z,6.23
2023-03-17T20:23:41.122Z,6.47
2023-03-17T20:26:13.840Z,6.50
2023-03-17T20:28:41.674Z,7.10
2023-03-17T20:31:09.545Z,6.60
2023-03-17T20:33:36.592Z,7.13
2023-03-17T20:36:04.946Z,6.30
2023-03-17T20:38:33.465Z,7.37
2023-03-17T20:41:07.518Z,5.50
2023-03-17T20:43:36.370Z,6.90
2023-03-17T20:46:05.996Z,7.07
2023-03-17T20:48:38.511Z,7.50
2023-03-17T20:51:06.438Z,6.97
2023-03-17T20:53:33.710Z,6.97
2023-03-17T20:56:00.695Z,6.53
2023-03-17T20:58:28.718Z,7.80
2023-03-17T21:00:57.425Z,7.20
2023-03-17T21:03:24.244Z,7.40
2023-03-17T21:05:51.765Z,7.70
2023-03-17T21:08:19.058Z,7.40
2023-03-17T21:10:47.303Z,7.20
2023-03-17T21:13:14.586Z,7.90
2023-03-17T21:15:42.467Z,7.83
2023-03-17T21:18:09.137Z,7.37
2023-03-17T21:20:35.953Z,7.10
2023-03-17T21:23:06.092Z,8.17
2023-03-17T21:25:34.230Z,8.27
2023-03-17T21:28:02.320Z,7.80
2023-03-17T21:30:29.781Z,8.00
2023-03-17T21:32:58.792Z,7.33
2023-03-17T21:35:29.878Z,6.73
2023-03-17T21:37:57.386Z,8.27
2023-03-17T21:40:28.196Z,7.23
2023-03-17T21:42:56.198Z,7.30
2023-03-17T21:45:24.391Z,8.13
2023-03-17T21:47:51.720Z,8.63
2023-03-17T21:50:19.088Z,6.50
2023-03-17T21:52:48.105Z,7.77
2023-03-17T21:55:15.644Z,8.77
2023-03-17T21:57:42.651Z,8.83
2023-03-17T22:00:09.825Z,8.00
2023-03-17T22:02:39.875Z,8.07
2023-03-17T22:05:07.203Z,8.43
2023-03-17T22:07:33.898Z,8.67
2023-03-17T22:10:01.271Z,8.57
2023-03-17T22:12:28.830Z,8.57
2023-03-17T22:14:58.592Z,7.30
2023-03-17T22:17:26.351Z,8.33
2023-03-17T22:19:53.335Z,8.70
2023-03-17T22:22:23.408Z,8.37
2023-03-17T22:24:50.277Z,8.80
2023-03-17T22:27:17.070Z,7.70
2023-03-17T22:29:44.183Z,8.73
2023-03-17T22:32:10.932Z,8.33
2023-03-17T22:34:37.782Z,7.60
2023-03-17T22:37:04.679Z,6.57
2023-03-17T22:39:32.079Z,8.00
2023-03-17T22:41:59.275Z,7.73
2023-03-17T22:44:26.344Z,8.73
2023-03-17T22:46:53.151Z,7.57
2023-03-17T22:49:19.878Z,7.73
2023-03-17T22:51:48.054Z,8.37
2023-03-17T22:54:14.819Z,7.90
2023-03-17T22:56:41.681Z,8.63
2023-03-17T22:59:08.933Z,7.90
2023-03-17T23:01:35.771Z,7.83
2023-03-17T23:04:02.716Z,8.20
2023-03-17T23:06:29.440Z,8.47
2023-03-17T23:08:57.941Z,6.93
2023-03-17T23:11:25.543Z,7.20
2023-03-17T23:13:52.735Z,7.37
2023-03-17T23:16:20.363Z,8.13
2023-03-17T23:18:47.755Z,7.87
2023-03-17T23:21:22.101Z,6.83
2023-03-17T23:23:49.543Z,7.93
2023-03-17T23:26:16.327Z,8.10
2023-03-17T23:28:44.492Z,7.80
2023-03-17T23:31:11.243Z,7.50
2023-03-17T23:33:38.882Z,7.60
2023-03-17T23:36:05.943Z,7.63
2023-03-17T23:38:32.712Z,7.27
2023-03-17T23:40:59.363Z,7.10
2023-03-17T23:43:26.566Z,9.13
2023-03-17T23:45:53.924Z,8.50
2023-03-17T23:48:20.816Z,7.97
2023-03-17T23:50:47.683Z,8.80
2023-03-17T23:53:16.722Z,8.23
2023-03-17T23:55:43.601Z,7.77
2023-03-17T23:58:10.280Z,8.40
